sensor_id;sensor_type;location;lat;lon;timestamp;pressure;altitude;pressure_sealevel;temperature;humidity
75166;BME280;63747;48.042;10.088;2023-07-13T00:00:36;95138.28;;;16.63;74.42
75166;BME280;63747;48.042;10.088;2023-07-13T00:03:37;95142.16;;;16.67;74.45
75166;BME280;63747;48.042;10.088;2023-07-13T00:06:37;95143.63;;;16.63;74.49
75166;BME280;63747;48.042;10.088;2023-07-13T00:09:38;95142.38;;;16.65;74.30
75166;BME280;63747;48.042;10.088;2023-07-13T00:12:39;95154.53;;;16.68;74.15
75166;BME280;63747;48.042;10.088;2023-07-13T00:15:39;95160.28;;;16.71;74.12
75166;BME280;63747;48.042;10.088;2023-07-13T00:18:40;95164.41;;;16.74;73.86
75166;BME280;63747;48.042;10.088;2023-07-13T00:21:41;95171.78;;;16.72;74.02
75166;BME280;63747;48.042;10.088;2023-07-13T00:24:42;95165.41;;;16.73;73.88
75166;BME280;63747;48.042;10.088;2023-07-13T00:27:44;95173.66;;;16.71;74.35
75166;BME280;63747;48.042;10.088;2023-07-13T00:30:44;95169.38;;;16.64;74.50
75166;BME280;63747;48.042;10.088;2023-07-13T00:33:46;95171.00;;;16.65;74.82
75166;BME280;63747;48.042;10.088;2023-07-13T00:36:47;95179.25;;;16.63;74.67
75166;BME280;63747;48.042;10.088;2023-07-13T00:39:48;95178.84;;;16.59;74.66
75166;BME280;63747;48.042;10.088;2023-07-13T00:42:52;95176.41;;;16.51;74.84
75166;BME280;63747;48.042;10.088;2023-07-13T00:48:59;95164.06;;;16.50;74.69
75166;BME280;63747;48.042;10.088;2023-07-13T00:52:08;95146.78;;;16.40;75.03
75166;BME280;63747;48.042;10.088;2023-07-13T00:55:11;95143.94;;;16.41;75.09
75166;BME280;63747;48.042;10.088;2023-07-13T00:58:13;95146.38;;;16.43;74.90
75166;BME280;63747;48.042;10.088;2023-07-13T01:01:13;95151.31;;;16.39;75.20
75166;BME280;63747;48.042;10.088;2023-07-13T01:04:14;95144.34;;;16.38;75.05
75166;BME280;63747;48.042;10.088;2023-07-13T01:07:15;95147.22;;;16.37;75.16
75166;BME280;63747;48.042;10.088;2023-07-13T01:10:16;95141.91;;;16.30;74.75
75166;BME280;63747;48.042;10.088;2023-07-13T01:13:17;95139.66;;;16.27;74.58
75166;BME280;63747;48.042;10.088;2023-07-13T01:16:24;95161.66;;;16.29;74.97
75166;BME280;63747;48.042;10.088;2023-07-13T01:19:33;95161.06;;;16.27;74.91
75166;BME280;63747;48.042;10.088;2023-07-13T01:22:39;95165.59;;;16.20;75.24
75166;BME280;63747;48.042;10.088;2023-07-13T01:25:40;95169.50;;;16.17;75.44
75166;BME280;63747;48.042;10.088;2023-07-13T01:28:40;95175.88;;;16.23;75.12
75166;BME280;63747;48.042;10.088;2023-07-13T01:31:41;95176.09;;;16.21;75.13
75166;BME280;63747;48.042;10.088;2023-07-13T01:34:42;95181.44;;;16.21;75.10
75166;BME280;63747;48.042;10.088;2023-07-13T01:37:44;95187.00;;;16.20;75.39
75166;BME280;63747;48.042;10.088;2023-07-13T01:40:45;95179.38;;;16.17;75.08
75166;BME280;63747;48.042;10.088;2023-07-13T01:43:46;95191.28;;;16.14;75.28
75166;BME280;63747;48.042;10.088;2023-07-13T01:46:47;95182.03;;;16.10;75.89
75166;BME280;63747;48.042;10.088;2023-07-13T01:49:47;95175.25;;;16.08;76.17
75166;BME280;63747;48.042;10.088;2023-07-13T01:52:48;95178.53;;;16.03;75.87
75166;BME280;63747;48.042;10.088;2023-07-13T01:55:49;95181.63;;;16.07;75.92
75166;BME280;63747;48.042;10.088;2023-07-13T01:58:49;95183.44;;;16.13;75.68
75166;BME280;63747;48.042;10.088;2023-07-13T02:01:50;95181.81;;;16.12;75.86
75166;BME280;63747;48.042;10.088;2023-07-13T02:04:51;95184.91;;;16.15;75.52
75166;BME280;63747;48.042;10.088;2023-07-13T02:07:51;95183.44;;;16.13;75.68
75166;BME280;63747;48.042;10.088;2023-07-13T02:10:52;95188.81;;;16.13;75.63
75166;BME280;63747;48.042;10.088;2023-07-13T02:13:53;95187.41;;;16.17;75.33
75166;BME280;63747;48.042;10.088;2023-07-13T02:16:54;95187.00;;;16.20;75.17
75166;BME280;63747;48.042;10.088;2023-07-13T02:19:55;95178.31;;;16.24;74.83
75166;BME280;63747;48.042;10.088;2023-07-13T02:22:55;95180.78;;;16.26;74.77
75166;BME280;63747;48.042;10.088;2023-07-13T02:25:57;95187.97;;;16.32;74.38
75166;BME280;63747;48.042;10.088;2023-07-13T02:28:58;95191.28;;;16.34;73.99
75166;BME280;63747;48.042;10.088;2023-07-13T02:31:59;95194.56;;;16.36;73.94
75166;BME280;63747;48.042;10.088;2023-07-13T02:34:59;95190.84;;;16.37;73.98
75166;BME280;63747;48.042;10.088;2023-07-13T02:38:00;95188.38;;;16.42;73.88
75166;BME280;63747;48.042;10.088;2023-07-13T02:41:01;95183.03;;;16.42;73.41
75166;BME280;63747;48.042;10.088;2023-07-13T02:44:02;95181.38;;;16.41;73.49
75166;BME280;63747;48.042;10.088;2023-07-13T02:47:04;95180.94;;;16.44;73.65
75166;BME280;63747;48.042;10.088;2023-07-13T02:50:05;95180.94;;;16.44;73.13
75166;BME280;63747;48.042;10.088;2023-07-13T02:53:06;95185.69;;;16.42;72.88
75166;BME280;63747;48.042;10.088;2023-07-13T02:56:06;95188.78;;;16.39;72.99
75166;BME280;63747;48.042;10.088;2023-07-13T02:59:07;95199.91;;;16.36;73.06
75166;BME280;63747;48.042;10.088;2023-07-13T03:02:08;95200.53;;;16.38;73.30
75166;BME280;63747;48.042;10.088;2023-07-13T03:05:09;95204.84;;;16.39;73.16
75166;BME280;63747;48.042;10.088;2023-07-13T03:08:12;95196.63;;;16.41;73.37
75166;BME280;63747;48.042;10.088;2023-07-13T03:11:16;95198.47;;;16.40;73.26
75166;BME280;63747;48.042;10.088;2023-07-13T03:14:17;95204.00;;;16.39;72.86
75166;BME280;63747;48.042;10.088;2023-07-13T03:17:18;95207.50;;;16.46;73.10
75166;BME280;63747;48.042;10.088;2023-07-13T03:20:19;95208.16;;;16.41;73.22
75166;BME280;63747;48.042;10.088;2023-07-13T03:23:21;95211.41;;;16.43;73.81
75166;BME280;63747;48.042;10.088;2023-07-13T03:26:22;95209.34;;;16.45;73.71
75166;BME280;63747;48.042;10.088;2023-07-13T03:29:22;95215.75;;;16.44;73.84
75166;BME280;63747;48.042;10.088;2023-07-13T03:32:23;95223.75;;;16.51;73.42
75166;BME280;63747;48.042;10.088;2023-07-13T03:35:24;95232.19;;;16.54;73.77
75166;BME280;63747;48.042;10.088;2023-07-13T03:38:25;95240.22;;;16.54;73.79
75166;BME280;63747;48.042;10.088;2023-07-13T03:41:26;95235.28;;;16.51;73.16
75166;BME280;63747;48.042;10.088;2023-07-13T03:44:26;95236.53;;;16.49;73.32
75166;BME280;63747;48.042;10.088;2023-07-13T03:47:27;95226.66;;;16.43;73.54
75166;BME280;63747;48.042;10.088;2023-07-13T03:50:28;95232.81;;;16.43;73.54
75166;BME280;63747;48.042;10.088;2023-07-13T03:53:28;95236.75;;;16.34;74.05
75166;BME280;63747;48.042;10.088;2023-07-13T03:56:29;95239.44;;;16.34;74.02
75166;BME280;63747;48.042;10.088;2023-07-13T03:59:32;95243.13;;;16.33;74.00
75166;BME280;63747;48.042;10.088;2023-07-13T04:02:33;95248.06;;;16.36;73.94
75166;BME280;63747;48.042;10.088;2023-07-13T04:05:35;95244.78;;;16.41;74.05
75166;BME280;63747;48.042;10.088;2023-07-13T04:08:36;95254.66;;;16.40;74.22
75166;BME280;63747;48.042;10.088;2023-07-13T04:11:37;95248.06;;;16.36;73.81
75166;BME280;63747;48.042;10.088;2023-07-13T04:14:37;95241.47;;;16.32;74.07
75166;BME280;63747;48.042;10.088;2023-07-13T04:17:38;95254.84;;;16.32;74.26
75166;BME280;63747;48.042;10.088;2023-07-13T04:20:39;95249.31;;;16.34;73.96
75166;BME280;63747;48.042;10.088;2023-07-13T04:23:40;95254.25;;;16.30;73.84
75166;BME280;63747;48.042;10.088;2023-07-13T04:26:41;95257.75;;;16.24;74.35
75166;BME280;63747;48.042;10.088;2023-07-13T04:29:41;95265.38;;;16.20;74.29
75166;BME280;63747;48.042;10.088;2023-07-13T04:32:42;95272.59;;;16.20;74.53
75166;BME280;63747;48.042;10.088;2023-07-13T04:35:43;95276.09;;;16.20;74.30
75166;BME280;63747;48.042;10.088;2023-07-13T04:38:45;95277.28;;;16.24;74.43
75166;BME280;63747;48.042;10.088;2023-07-13T04:41:46;95283.47;;;16.25;74.07
75166;BME280;63747;48.042;10.088;2023-07-13T04:44:50;95286.56;;;16.22;74.14
75166;BME280;63747;48.042;10.088;2023-07-13T04:47:51;95284.91;;;16.21;74.08
75166;BME280;63747;48.042;10.088;2023-07-13T04:50:57;95281.22;;;16.22;73.54
75166;BME280;63747;48.042;10.088;2023-07-13T04:53:58;95281.63;;;16.19;72.64
75166;BME280;63747;48.042;10.088;2023-07-13T04:56:59;95279.75;;;16.19;70.57
75166;BME280;63747;48.042;10.088;2023-07-13T05:00:00;95278.75;;;16.27;68.97
75166;BME280;63747;48.042;10.088;2023-07-13T05:03:02;95285.75;;;16.28;68.78
75166;BME280;63747;48.042;10.088;2023-07-13T05:06:05;95290.88;;;16.23;68.20
75166;BME280;63747;48.042;10.088;2023-07-13T05:09:06;95289.22;;;16.28;68.62
75166;BME280;63747;48.042;10.088;2023-07-13T05:12:08;95296.44;;;16.35;67.08
75166;BME280;63747;48.042;10.088;2023-07-13T05:15:10;95301.34;;;16.44;67.00
75166;BME280;63747;48.042;10.088;2023-07-13T05:18:11;95308.97;;;16.54;66.98
75166;BME280;63747;48.042;10.088;2023-07-13T05:21:11;95313.47;;;16.60;67.13
75166;BME280;63747;48.042;10.088;2023-07-13T05:24:12;95307.09;;;16.68;67.46
75166;BME280;63747;48.042;10.088;2023-07-13T05:27:13;95302.72;;;16.80;67.70
75166;BME280;63747;48.042;10.088;2023-07-13T05:30:14;95302.72;;;16.86;66.81
75166;BME280;63747;48.042;10.088;2023-07-13T05:33:15;95311.75;;;16.92;66.51
75166;BME280;63747;48.042;10.088;2023-07-13T05:36:16;95301.06;;;16.92;65.49
75166;BME280;63747;48.042;10.088;2023-07-13T05:39:16;95307.84;;;17.01;65.66
75166;BME280;63747;48.042;10.088;2023-07-13T05:42:17;95304.53;;;17.12;65.66
75166;BME280;63747;48.042;10.088;2023-07-13T05:45:18;95312.94;;;17.23;65.17
75166;BME280;63747;48.042;10.088;2023-07-13T05:48:19;95299.34;;;17.18;63.12
75166;BME280;63747;48.042;10.088;2023-07-13T05:51:19;95316.03;;;17.06;62.51
75166;BME280;63747;48.042;10.088;2023-07-13T05:54:20;95321.63;;;17.11;63.43
75166;BME280;63747;48.042;10.088;2023-07-13T05:57:21;95323.66;;;17.23;63.43
75166;BME280;63747;48.042;10.088;2023-07-13T06:00:21;95329.56;;;17.38;63.56
75166;BME280;63747;48.042;10.088;2023-07-13T06:03:22;95332.66;;;17.42;63.33
75166;BME280;63747;48.042;10.088;2023-07-13T06:06:23;95337.56;;;17.51;61.17
75166;BME280;63747;48.042;10.088;2023-07-13T06:09:23;95334.63;;;17.59;60.94
75166;BME280;63747;48.042;10.088;2023-07-13T06:12:25;95331.69;;;17.67;60.95
75166;BME280;63747;48.042;10.088;2023-07-13T06:15:26;95343.03;;;17.70;59.77
75166;BME280;63747;48.042;10.088;2023-07-13T06:18:26;95339.06;;;17.79;60.03
75166;BME280;63747;48.042;10.088;2023-07-13T06:21:27;95333.22;;;17.95;60.15
75166;BME280;63747;48.042;10.088;2023-07-13T06:24:28;95326.94;;;18.08;60.20
75166;BME280;63747;48.042;10.088;2023-07-13T06:27:28;95326.63;;;18.22;60.28
75166;BME280;63747;48.042;10.088;2023-07-13T06:30:29;95337.47;;;18.34;60.25
75166;BME280;63747;48.042;10.088;2023-07-13T06:33:30;95338.66;;;18.45;59.32
75166;BME280;63747;48.042;10.088;2023-07-13T06:36:30;95341.75;;;18.42;59.55
75166;BME280;63747;48.042;10.088;2023-07-13T06:39:32;95347.56;;;18.39;59.07
75166;BME280;63747;48.042;10.088;2023-07-13T06:42:33;95347.06;;;18.48;58.71
75166;BME280;63747;48.042;10.088;2023-07-13T06:45:40;95354.78;;;18.38;58.50
75166;BME280;63747;48.042;10.088;2023-07-13T06:48:42;95364.53;;;18.33;57.36
75166;BME280;63747;48.042;10.088;2023-07-13T06:51:43;95358.63;;;18.24;56.05
75166;BME280;63747;48.042;10.088;2023-07-13T06:54:43;95365.03;;;18.23;57.45
75166;BME280;63747;48.042;10.088;2023-07-13T06:57:44;95372.66;;;18.51;55.97
75166;BME280;63747;48.042;10.088;2023-07-13T07:00:45;95378.53;;;18.66;56.75
75166;BME280;63747;48.042;10.088;2023-07-13T07:03:46;95375.94;;;18.85;57.09
75166;BME280;63747;48.042;10.088;2023-07-13T07:06:47;95376.22;;;18.95;57.32
75166;BME280;63747;48.042;10.088;2023-07-13T07:09:47;95379.91;;;19.00;56.95
75166;BME280;63747;48.042;10.088;2023-07-13T07:12:48;95379.38;;;19.10;56.26
75166;BME280;63747;48.042;10.088;2023-07-13T07:15:49;95387.78;;;18.95;56.96
75166;BME280;63747;48.042;10.088;2023-07-13T07:18:50;95378.69;;;18.96;56.82
75166;BME280;63747;48.042;10.088;2023-07-13T07:21:50;95388.59;;;18.96;56.79
75166;BME280;63747;48.042;10.088;2023-07-13T07:24:51;95391.41;;;18.83;55.96
75166;BME280;63747;48.042;10.088;2023-07-13T07:27:52;95386.44;;;18.86;56.48
75166;BME280;63747;48.042;10.088;2023-07-13T07:30:54;95381.22;;;18.91;56.55
75166;BME280;63747;48.042;10.088;2023-07-13T07:33:55;95380.19;;;19.11;54.85
75166;BME280;63747;48.042;10.088;2023-07-13T07:36:58;95389.09;;;19.11;55.90
75166;BME280;63747;48.042;10.088;2023-07-13T07:39:59;95385.06;;;19.20;54.14
75166;BME280;63747;48.042;10.088;2023-07-13T07:43:00;95385.72;;;19.16;54.84
75166;BME280;63747;48.042;10.088;2023-07-13T07:46:01;95390.16;;;19.47;54.87
75166;BME280;63747;48.042;10.088;2023-07-13T07:49:02;95392.19;;;19.70;53.61
75166;BME280;63747;48.042;10.088;2023-07-13T07:52:03;95401.81;;;19.77;54.33
75166;BME280;63747;48.042;10.088;2023-07-13T07:55:05;95396.97;;;19.86;54.68
75166;BME280;63747;48.042;10.088;2023-07-13T07:58:07;95402.09;;;19.88;54.05
75166;BME280;63747;48.042;10.088;2023-07-13T08:01:08;95413.09;;;19.86;53.74
75166;BME280;63747;48.042;10.088;2023-07-13T08:04:09;95410.19;;;19.69;54.24
75166;BME280;63747;48.042;10.088;2023-07-13T08:07:09;95409.44;;;19.62;51.78
75166;BME280;63747;48.042;10.088;2023-07-13T08:10:10;95400.75;;;19.42;53.56
75166;BME280;63747;48.042;10.088;2023-07-13T08:13:11;95400.72;;;19.67;52.43
75166;BME280;63747;48.042;10.088;2023-07-13T08:16:11;95407.16;;;19.96;52.96
75166;BME280;63747;48.042;10.088;2023-07-13T08:19:12;95408.69;;;20.22;50.95
75166;BME280;63747;48.042;10.088;2023-07-13T08:22:13;95414.69;;;20.35;51.72
75166;BME280;63747;48.042;10.088;2023-07-13T08:25:13;95404.81;;;20.59;51.50
75166;BME280;63747;48.042;10.088;2023-07-13T08:28:15;95407.69;;;20.76;51.08
75166;BME280;63747;48.042;10.088;2023-07-13T08:31:16;95406.66;;;21.01;49.47
75166;BME280;63747;48.042;10.088;2023-07-13T08:34:16;95407.00;;;21.04;50.36
75166;BME280;63747;48.042;10.088;2023-07-13T08:37:19;95410.06;;;20.96;49.88
75166;BME280;63747;48.042;10.088;2023-07-13T08:40:24;95407.13;;;20.98;50.91
75166;BME280;63747;48.042;10.088;2023-07-13T08:43:30;95418.59;;;20.81;49.85
75166;BME280;63747;48.042;10.088;2023-07-13T08:46:36;95412.84;;;20.89;51.00
75166;BME280;63747;48.042;10.088;2023-07-13T08:49:39;95415.78;;;20.88;49.17
75166;BME280;63747;48.042;10.088;2023-07-13T08:52:42;95424.31;;;20.85;47.59
75166;BME280;63747;48.042;10.088;2023-07-13T08:55:44;95426.06;;;20.68;47.08
75166;BME280;63747;48.042;10.088;2023-07-13T08:58:46;95418.88;;;20.50;46.87
75166;BME280;63747;48.042;10.088;2023-07-13T09:02:15;95425.91;;;20.32;47.86
75166;BME280;63747;48.042;10.088;2023-07-13T09:08:37;95420.88;;;20.54;45.89
75166;BME280;63747;48.042;10.088;2023-07-13T09:12:01;95422.06;;;20.70;46.41
75166;BME280;63747;48.042;10.088;2023-07-13T09:15:05;95414.97;;;20.87;48.54
75166;BME280;63747;48.042;10.088;2023-07-13T09:21:37;95422.94;;;21.06;45.17
75166;BME280;63747;48.042;10.088;2023-07-13T09:28:00;95413.22;;;21.05;44.93
75166;BME280;63747;48.042;10.088;2023-07-13T09:31:03;95424.22;;;20.91;43.92
75166;BME280;63747;48.042;10.088;2023-07-13T09:34:10;95416.59;;;20.77;44.51
75166;BME280;63747;48.042;10.088;2023-07-13T09:37:19;95419.66;;;20.80;43.91
75166;BME280;63747;48.042;10.088;2023-07-13T09:40:30;95421.06;;;20.83;43.11
75166;BME280;63747;48.042;10.088;2023-07-13T09:43:34;95430.41;;;20.69;42.34
75166;BME280;63747;48.042;10.088;2023-07-13T09:46:36;95434.56;;;20.53;42.25
75166;BME280;63747;48.042;10.088;2023-07-13T09:49:40;95432.25;;;20.56;43.84
75166;BME280;63747;48.042;10.088;2023-07-13T09:52:46;95427.28;;;20.95;43.29
75166;BME280;63747;48.042;10.088;2023-07-13T09:55:49;95433.13;;;20.80;43.92
75166;BME280;63747;48.042;10.088;2023-07-13T09:58:50;95434.69;;;20.58;45.02
75166;BME280;63747;48.042;10.088;2023-07-13T10:01:51;95431.38;;;20.98;45.79
75166;BME280;63747;48.042;10.088;2023-07-13T10:05:13;95432.84;;;21.35;44.59
75166;BME280;63747;48.042;10.088;2023-07-13T10:08:30;95437.72;;;21.62;44.41
75166;BME280;63747;48.042;10.088;2023-07-13T10:11:34;95441.47;;;21.84;43.71
75166;BME280;63747;48.042;10.088;2023-07-13T10:14:36;95445.66;;;21.92;44.85
75166;BME280;63747;48.042;10.088;2023-07-13T10:17:37;95446.91;;;22.13;45.16
75166;BME280;63747;48.042;10.088;2023-07-13T10:20:37;95447.28;;;22.33;44.97
75166;BME280;63747;48.042;10.088;2023-07-13T10:23:39;95444.78;;;22.72;44.92
75166;BME280;63747;48.042;10.088;2023-07-13T10:26:48;95434.22;;;23.21;43.93
75166;BME280;63747;48.042;10.088;2023-07-13T10:29:59;95439.88;;;23.02;44.84
75166;BME280;63747;48.042;10.088;2023-07-13T10:33:04;95442.53;;;22.97;44.56
75166;BME280;63747;48.042;10.088;2023-07-13T10:36:22;95436.28;;;23.14;43.52
75166;BME280;63747;48.042;10.088;2023-07-13T10:39:28;95435.31;;;23.20;41.47
75166;BME280;63747;48.042;10.088;2023-07-13T10:42:39;95430.00;;;23.25;41.56
75166;BME280;63747;48.042;10.088;2023-07-13T10:45:47;95422.13;;;23.23;42.29
75166;BME280;63747;48.042;10.088;2023-07-13T10:49:12;95434.34;;;23.26;43.20
75166;BME280;63747;48.042;10.088;2023-07-13T10:52:49;95442.22;;;23.27;42.28
75166;BME280;63747;48.042;10.088;2023-07-13T10:59:13;95439.06;;;23.19;40.27
75166;BME280;63747;48.042;10.088;2023-07-13T11:02:25;95444.63;;;22.95;42.89
75166;BME280;63747;48.042;10.088;2023-07-13T11:08:32;95445.56;;;22.55;41.83
75166;BME280;63747;48.042;10.088;2023-07-13T11:11:36;95438.41;;;22.49;40.01
75166;BME280;63747;48.042;10.088;2023-07-13T11:15:02;95430.56;;;22.93;40.46
75166;BME280;63747;48.042;10.088;2023-07-13T11:18:20;95430.22;;;23.40;41.92
75166;BME280;63747;48.042;10.088;2023-07-13T11:21:25;95443.88;;;23.89;41.04
75166;BME280;63747;48.042;10.088;2023-07-13T11:24:29;95446.69;;;23.94;39.87
75166;BME280;63747;48.042;10.088;2023-07-13T11:27:52;95445.28;;;23.92;41.09
75166;BME280;63747;48.042;10.088;2023-07-13T11:31:13;95441.47;;;23.71;39.96
75166;BME280;63747;48.042;10.088;2023-07-13T11:34:15;95435.38;;;23.80;41.56
75166;BME280;63747;48.042;10.088;2023-07-13T11:37:18;95437.50;;;23.95;41.85
75166;BME280;63747;48.042;10.088;2023-07-13T11:40:22;95433.66;;;24.13;40.55
75166;BME280;63747;48.042;10.088;2023-07-13T11:43:28;95429.59;;;24.37;40.53
75166;BME280;63747;48.042;10.088;2023-07-13T11:46:28;95426.72;;;25.03;41.46
75166;BME280;63747;48.042;10.088;2023-07-13T11:49:31;95422.78;;;25.58;39.20
75166;BME280;63747;48.042;10.088;2023-07-13T11:52:35;95434.66;;;25.89;38.12
75166;BME280;63747;48.042;10.088;2023-07-13T11:55:38;95424.78;;;26.41;36.77
75166;BME280;63747;48.042;10.088;2023-07-13T11:58:39;95414.28;;;26.65;37.41
75166;BME280;63747;48.042;10.088;2023-07-13T12:01:46;95415.09;;;26.65;36.06
75166;BME280;63747;48.042;10.088;2023-07-13T12:04:49;95414.25;;;26.54;36.82
75166;BME280;63747;48.042;10.088;2023-07-13T12:07:52;95408.78;;;26.44;36.31
75166;BME280;63747;48.042;10.088;2023-07-13T12:10:59;95413.41;;;26.49;36.96
75166;BME280;63747;48.042;10.088;2023-07-13T12:14:00;95416.19;;;26.90;36.03
75166;BME280;63747;48.042;10.088;2023-07-13T12:17:09;95407.22;;;26.94;36.92
75166;BME280;63747;48.042;10.088;2023-07-13T12:20:37;95402.81;;;27.70;36.72
75166;BME280;63747;48.042;10.088;2023-07-13T12:23:38;95394.19;;;28.12;32.59
75166;BME280;63747;48.042;10.088;2023-07-13T12:26:39;95395.47;;;27.70;34.00
75166;BME280;63747;48.042;10.088;2023-07-13T12:29:49;95387.28;;;27.70;33.88
75166;BME280;63747;48.042;10.088;2023-07-13T12:33:00;95384.34;;;27.41;34.97
75166;BME280;63747;48.042;10.088;2023-07-13T12:36:04;95384.06;;;27.48;35.39
75166;BME280;63747;48.042;10.088;2023-07-13T12:39:15;95380.72;;;27.81;35.38
75166;BME280;63747;48.042;10.088;2023-07-13T12:42:20;95379.00;;;28.06;36.79
75166;BME280;63747;48.042;10.088;2023-07-13T12:45:26;95382.84;;;28.00;33.55
75166;BME280;63747;48.042;10.088;2023-07-13T12:48:38;95373.06;;;27.88;35.55
75166;BME280;63747;48.042;10.088;2023-07-13T12:51:41;95374.75;;;27.69;36.75
75166;BME280;63747;48.042;10.088;2023-07-13T12:54:53;95384.53;;;27.85;34.45
75166;BME280;63747;48.042;10.088;2023-07-13T12:57:57;95381.03;;;27.70;33.81
75166;BME280;63747;48.042;10.088;2023-07-13T13:01:02;95378.59;;;27.68;34.90
75166;BME280;63747;48.042;10.088;2023-07-13T13:04:03;95373.44;;;27.61;34.06
75166;BME280;63747;48.042;10.088;2023-07-13T13:07:09;95371.06;;;28.04;34.91
75166;BME280;63747;48.042;10.088;2023-07-13T13:10:12;95368.56;;;28.23;36.04
75166;BME280;63747;48.042;10.088;2023-07-13T13:13:13;95365.00;;;28.28;34.85
75166;BME280;63747;48.042;10.088;2023-07-13T13:16:31;95367.13;;;28.36;33.67
75166;BME280;63747;48.042;10.088;2023-07-13T13:19:33;95366.09;;;27.36;34.07
75166;BME280;63747;48.042;10.088;2023-07-13T13:22:36;95363.41;;;27.21;36.49
75166;BME280;63747;48.042;10.088;2023-07-13T13:25:36;95365.06;;;26.86;35.08
75166;BME280;63747;48.042;10.088;2023-07-13T13:28:37;95366.06;;;25.62;37.34
75166;BME280;63747;48.042;10.088;2023-07-13T13:31:44;95373.88;;;25.53;37.10
75166;BME280;63747;48.042;10.088;2023-07-13T13:34:45;95369.53;;;25.52;37.02
75166;BME280;63747;48.042;10.088;2023-07-13T13:37:46;95351.84;;;25.97;36.95
75166;BME280;63747;48.042;10.088;2023-07-13T13:40:47;95368.03;;;26.75;37.96
75166;BME280;63747;48.042;10.088;2023-07-13T13:43:48;95361.69;;;27.56;36.27
75166;BME280;63747;48.042;10.088;2023-07-13T13:46:53;95361.13;;;27.79;36.72
75166;BME280;63747;48.042;10.088;2023-07-13T13:49:54;95361.50;;;28.12;34.39
75166;BME280;63747;48.042;10.088;2023-07-13T13:52:55;95358.63;;;27.93;35.67
75166;BME280;63747;48.042;10.088;2023-07-13T13:55:55;95358.03;;;27.96;35.37
75166;BME280;63747;48.042;10.088;2023-07-13T13:58:56;95352.72;;;27.65;35.77
75166;BME280;63747;48.042;10.088;2023-07-13T14:01:57;95353.41;;;27.97;35.54
75166;BME280;63747;48.042;10.088;2023-07-13T14:05:01;95346.38;;;27.85;34.32
75166;BME280;63747;48.042;10.088;2023-07-13T14:08:03;95340.44;;;27.78;36.69
75166;BME280;63747;48.042;10.088;2023-07-13T14:11:03;95349.38;;;28.38;35.39
75166;BME280;63747;48.042;10.088;2023-07-13T14:14:04;95347.38;;;28.54;35.94
75166;BME280;63747;48.042;10.088;2023-07-13T14:17:15;95345.44;;;28.60;33.83
75166;BME280;63747;48.042;10.088;2023-07-13T14:20:20;95350.56;;;28.66;34.92
75166;BME280;63747;48.042;10.088;2023-07-13T14:23:23;95344.56;;;29.03;33.80
75166;BME280;63747;48.042;10.088;2023-07-13T14:26:25;95345.47;;;28.55;33.09
75166;BME280;63747;48.042;10.088;2023-07-13T14:29:27;95343.91;;;28.83;35.85
75166;BME280;63747;48.042;10.088;2023-07-13T14:32:28;95346.19;;;29.34;35.01
75166;BME280;63747;48.042;10.088;2023-07-13T14:35:28;95336.63;;;29.36;33.50
75166;BME280;63747;48.042;10.088;2023-07-13T14:38:29;95332.91;;;29.51;34.55
75166;BME280;63747;48.042;10.088;2023-07-13T14:41:30;95342.44;;;29.77;32.15
75166;BME280;63747;48.042;10.088;2023-07-13T14:44:31;95337.78;;;29.78;32.64
75166;BME280;63747;48.042;10.088;2023-07-13T14:47:32;95336.69;;;29.79;32.52
75166;BME280;63747;48.042;10.088;2023-07-13T14:50:32;95336.88;;;29.64;33.20
75166;BME280;63747;48.042;10.088;2023-07-13T14:53:35;95342.56;;;29.91;32.92
75166;BME280;63747;48.042;10.088;2023-07-13T14:56:38;95327.53;;;30.13;32.75
75166;BME280;63747;48.042;10.088;2023-07-13T14:59:38;95326.34;;;29.76;31.78
75166;BME280;63747;48.042;10.088;2023-07-13T15:02:39;95323.22;;;28.77;33.31
75166;BME280;63747;48.042;10.088;2023-07-13T15:05:40;95325.16;;;28.76;34.63
75166;BME280;63747;48.042;10.088;2023-07-13T15:08:41;95329.47;;;29.11;33.65
75166;BME280;63747;48.042;10.088;2023-07-13T15:11:42;95331.25;;;28.58;33.25
75166;BME280;63747;48.042;10.088;2023-07-13T15:14:43;95326.88;;;27.48;33.99
75166;BME280;63747;48.042;10.088;2023-07-13T15:17:45;95328.88;;;27.06;34.56
75166;BME280;63747;48.042;10.088;2023-07-13T15:20:49;95324.50;;;27.21;34.99
75166;BME280;63747;48.042;10.088;2023-07-13T15:23:52;95326.13;;;27.17;35.19
75166;BME280;63747;48.042;10.088;2023-07-13T15:26:54;95330.78;;;27.06;35.73
75166;BME280;63747;48.042;10.088;2023-07-13T15:29:54;95331.03;;;26.69;35.67
75166;BME280;63747;48.042;10.088;2023-07-13T15:32:58;95337.75;;;26.20;37.02
75166;BME280;63747;48.042;10.088;2023-07-13T15:36:02;95344.88;;;26.31;35.73
75166;BME280;63747;48.042;10.088;2023-07-13T15:39:05;95342.66;;;26.18;36.49
75166;BME280;63747;48.042;10.088;2023-07-13T15:42:13;95343.06;;;25.79;37.05
75166;BME280;63747;48.042;10.088;2023-07-13T15:45:18;95350.25;;;25.53;37.04
75166;BME280;63747;48.042;10.088;2023-07-13T15:48:22;95348.84;;;25.36;37.08
75166;BME280;63747;48.042;10.088;2023-07-13T15:51:28;95337.50;;;25.49;38.87
75166;BME280;63747;48.042;10.088;2023-07-13T15:54:29;95339.94;;;26.18;37.41
75166;BME280;63747;48.042;10.088;2023-07-13T15:57:30;95337.53;;;26.37;36.47
75166;BME280;63747;48.042;10.088;2023-07-13T16:00:31;95345.69;;;26.37;38.06
75166;BME280;63747;48.042;10.088;2023-07-13T16:03:31;95340.31;;;26.98;36.16
75166;BME280;63747;48.042;10.088;2023-07-13T16:06:34;95343.31;;;27.12;35.63
75166;BME280;63747;48.042;10.088;2023-07-13T16:09:36;95344.81;;;27.64;34.75
75166;BME280;63747;48.042;10.088;2023-07-13T16:12:38;95341.59;;;27.47;35.02
75166;BME280;63747;48.042;10.088;2023-07-13T16:15:39;95341.66;;;26.75;35.52